createdAt,value
2023-03-25T00:00:16.057Z,11.70
2023-03-25T00:02:01.684Z,11.67
2023-03-25T00:03:05.076Z,11.67
2023-03-25T00:04:12.514Z,11.67
2023-03-25T00:05:16.537Z,11.66
2023-03-25T00:06:34.577Z,11.67
2023-03-25T00:07:41.220Z,11.66
2023-03-25T00:08:45.139Z,11.67
2023-03-25T00:09:48.339Z,11.67
2023-03-25T00:10:54.750Z,11.67
2023-03-25T00:12:04.135Z,11.67
2023-03-25T00:13:09.428Z,11.64
2023-03-25T00:14:12.517Z,11.63
2023-03-25T00:15:16.894Z,11.61
2023-03-25T00:16:20.118Z,11.60
2023-03-25T00:17:31.357Z,11.58
2023-03-25T00:18:34.615Z,11.57
2023-03-25T00:19:41.578Z,11.57
2023-03-25T00:20:49.824Z,11.55
2023-03-25T00:21:56.684Z,11.52
2023-03-25T00:23:02.180Z,11.50
2023-03-25T00:24:06.521Z,11.49
2023-03-25T00:25:16.598Z,11.49
2023-03-25T00:26:24.878Z,11.47
2023-03-25T00:27:27.652Z,11.44
2023-03-25T00:28:35.421Z,11.42
2023-03-25T00:29:42.056Z,11.41
2023-03-25T00:30:46.838Z,11.38
2023-03-25T00:31:52.221Z,11.35
2023-03-25T00:32:58.322Z,11.31
2023-03-25T00:34:02.061Z,11.28
2023-03-25T00:35:09.009Z,11.25
2023-03-25T00:36:14.986Z,11.23
2023-03-25T00:37:43.759Z,11.18
2023-03-25T00:38:49.638Z,11.16
2023-03-25T00:40:06.796Z,11.13
2023-03-25T00:41:32.462Z,11.08
2023-03-25T00:42:50.056Z,11.05
2023-03-25T00:43:56.627Z,11.02
2023-03-25T00:44:59.369Z,11.00
2023-03-25T00:46:31.888Z,10.98
2023-03-25T00:47:39.107Z,10.94
2023-03-25T00:48:46.193Z,10.93
2023-03-25T00:49:52.882Z,10.93
2023-03-25T00:50:59.662Z,10.93
2023-03-25T00:54:00.407Z,10.98
2023-03-25T00:55:03.648Z,11.01
2023-03-25T00:56:09.871Z,11.03
2023-03-25T00:57:12.715Z,11.04
2023-03-25T00:58:18.898Z,11.06
2023-03-25T00:59:46.535Z,11.06
2023-03-25T01:00:49.841Z,11.05
2023-03-25T01:01:56.371Z,11.05
2023-03-25T01:03:05.438Z,11.03
2023-03-25T01:04:12.691Z,11.01
2023-03-25T01:05:17.550Z,10.99
2023-03-25T01:06:21.805Z,10.99
2023-03-25T01:07:24.651Z,10.99
2023-03-25T01:08:29.931Z,11.00
2023-03-25T01:09:39.928Z,11.01
2023-03-25T01:10:56.063Z,11.02
2023-03-25T01:12:00.980Z,11.02
2023-03-25T01:13:04.967Z,11.04
2023-03-25T01:14:09.475Z,11.05
2023-03-25T01:15:17.526Z,11.08
2023-03-25T01:16:29.662Z,11.10
2023-03-25T01:17:33.354Z,11.11
2023-03-25T01:18:38.847Z,11.15
2023-03-25T01:19:42.059Z,11.18
2023-03-25T01:21:04.650Z,11.23
2023-03-25T01:22:07.668Z,11.27
2023-03-25T01:23:19.646Z,11.30
2023-03-25T01:24:22.606Z,11.36
2023-03-25T01:25:28.537Z,11.39
2023-03-25T01:26:31.084Z,11.43
2023-03-25T01:27:35.605Z,11.45
2023-03-25T01:28:51.076Z,11.48
2023-03-25T01:29:57.897Z,11.50
2023-03-25T01:31:18.783Z,11.54
2023-03-25T01:32:25.074Z,11.56
2023-03-25T01:33:57.127Z,11.58
2023-03-25T01:35:00.712Z,11.58
2023-03-25T01:36:03.491Z,11.60
2023-03-25T01:37:07.850Z,11.63
2023-03-25T01:38:09.935Z,11.63
2023-03-25T01:39:16.687Z,11.65
2023-03-25T01:40:21.114Z,11.66
2023-03-25T01:41:24.352Z,11.66
2023-03-25T01:42:26.756Z,11.66
2023-03-25T01:43:30.432Z,11.66
2023-03-25T01:45:10.709Z,11.65
2023-03-25T01:46:17.383Z,11.62
2023-03-25T01:47:19.918Z,11.61
2023-03-25T01:48:25.150Z,11.60
2023-03-25T01:49:33.475Z,11.61
2023-03-25T01:51:03.779Z,11.57
2023-03-25T01:52:09.865Z,11.56
2023-03-25T01:53:13.638Z,11.56
2023-03-25T01:54:18.086Z,11.53
2023-03-25T01:55:21.287Z,11.53
2023-03-25T01:56:26.835Z,11.52
2023-03-25T01:57:33.981Z,11.53
2023-03-25T01:58:44.138Z,11.52
2023-03-25T01:59:48.202Z,11.51
2023-03-25T02:00:51.570Z,11.49
2023-03-25T02:01:57.271Z,11.48
2023-03-25T02:03:03.537Z,11.46
2023-03-25T02:04:12.271Z,11.45
2023-03-25T02:05:19.268Z,11.45
2023-03-25T02:06:28.650Z,11.43
2023-03-25T02:07:33.429Z,11.42
2023-03-25T02:08:39.825Z,11.42
2023-03-25T02:09:43.008Z,11.40
2023-03-25T02:10:47.463Z,11.38
2023-03-25T02:11:50.799Z,11.38
2023-03-25T02:13:00.592Z,11.39
2023-03-25T02:14:05.879Z,11.37
2023-03-25T02:15:10.859Z,11.35
2023-03-25T02:16:27.128Z,11.32
2023-03-25T02:17:38.864Z,11.30
2023-03-25T02:18:48.850Z,11.25
2023-03-25T02:20:26.131Z,11.22
2023-03-25T02:21:55.397Z,11.17
2023-03-25T02:24:14.245Z,11.10
2023-03-25T02:25:46.172Z,11.03
2023-03-25T02:27:13.867Z,10.98
2023-03-25T02:28:26.248Z,10.92
2023-03-25T02:30:07.613Z,10.85
2023-03-25T02:31:50.041Z,10.72
2023-03-25T02:33:38.210Z,10.63
2023-03-25T02:34:50.258Z,10.51
2023-03-25T02:36:15.586Z,10.43
2023-03-25T02:38:10.066Z,10.34
2023-03-25T02:39:29.535Z,10.24
2023-03-25T02:40:38.949Z,10.18
2023-03-25T02:41:48.198Z,10.13
2023-03-25T02:42:56.395Z,10.10
2023-03-25T02:44:03.761Z,10.07
2023-03-25T02:45:12.149Z,10.07
2023-03-25T02:46:17.565Z,10.04
2023-03-25T02:47:24.685Z,10.02
2023-03-25T02:48:34.987Z,9.99
2023-03-25T02:49:40.511Z,9.98
2023-03-25T02:50:47.173Z,9.95
2023-03-25T02:51:54.890Z,9.94
2023-03-25T02:53:00.044Z,9.90
2023-03-25T02:54:05.416Z,9.87
2023-03-25T02:55:12.833Z,9.86
2023-03-25T02:56:25.711Z,9.85
2023-03-25T02:57:33.927Z,9.84
2023-03-25T02:58:38.828Z,9.83
2023-03-25T02:59:49.116Z,9.82
2023-03-25T03:00:59.221Z,9.81
2023-03-25T03:02:03.927Z,9.83
2023-03-25T03:04:33.709Z,9.81
2023-03-25T03:05:40.929Z,9.81
2023-03-25T03:07:07.999Z,9.83
2023-03-25T03:08:28.245Z,9.83
2023-03-25T03:09:42.763Z,9.81
2023-03-25T03:10:52.457Z,9.82
2023-03-25T03:12:04.942Z,9.80
2023-03-25T03:13:16.644Z,9.81
2023-03-25T03:14:49.870Z,9.81
2023-03-25T03:16:07.886Z,9.80
2023-03-25T03:17:20.525Z,9.80
2023-03-25T03:18:38.197Z,9.80
2023-03-25T03:19:46.574Z,9.80
2023-03-25T03:20:57.352Z,9.79
2023-03-25T03:22:03.971Z,9.78
2023-03-25T03:23:26.132Z,9.78
2023-03-25T03:24:32.241Z,9.76
2023-03-25T03:25:38.524Z,9.75
2023-03-25T03:26:44.912Z,9.74
2023-03-25T03:27:50.553Z,9.72
2023-03-25T03:28:59.858Z,9.69
2023-03-25T03:30:09.057Z,9.67
2023-03-25T03:31:16.359Z,9.65
2023-03-25T03:32:43.480Z,9.62
2023-03-25T03:33:48.311Z,9.62
2023-03-25T03:34:54.014Z,9.61
2023-03-25T03:36:02.228Z,9.62
2023-03-25T03:37:07.038Z,9.62
2023-03-25T03:38:11.994Z,9.61
2023-03-25T03:39:20.004Z,9.60
2023-03-25T03:40:23.871Z,9.60
2023-03-25T03:41:28.459Z,9.60
2023-03-25T03:42:35.330Z,9.61
2023-03-25T03:43:43.075Z,9.61
2023-03-25T03:44:53.155Z,9.61
2023-03-25T03:46:24.973Z,9.61
2023-03-25T03:47:30.673Z,9.61
2023-03-25T03:48:40.477Z,9.62
2023-03-25T03:50:09.444Z,9.61
2023-03-25T03:51:18.808Z,9.60
2023-03-25T03:52:25.914Z,9.61
2023-03-25T03:53:30.317Z,9.61
2023-03-25T03:54:40.417Z,9.61
2023-03-25T03:55:48.064Z,9.62
2023-03-25T03:56:56.003Z,9.60
2023-03-25T03:58:10.059Z,9.62
2023-03-25T03:59:17.492Z,9.61
2023-03-25T04:00:24.321Z,9.60
2023-03-25T04:01:36.259Z,9.58
2023-03-25T04:02:41.465Z,9.57
2023-03-25T04:04:07.946Z,9.53
2023-03-25T04:05:16.313Z,9.51
2023-03-25T04:06:25.804Z,9.48
2023-03-25T04:07:39.055Z,9.47
2023-03-25T04:08:51.998Z,9.45
2023-03-25T04:09:57.873Z,9.42
2023-03-25T04:11:07.964Z,9.40
2023-03-25T04:12:14.469Z,9.38
2023-03-25T04:13:19.330Z,9.36
2023-03-25T04:14:21.505Z,9.36
2023-03-25T04:15:24.469Z,9.35
2023-03-25T04:16:26.563Z,9.33
2023-03-25T04:17:33.069Z,9.32
2023-03-25T04:21:15.757Z,9.22
2023-03-25T04:22:19.305Z,9.21
2023-03-25T04:23:26.233Z,9.21
2023-03-25T04:24:39.399Z,9.20
2023-03-25T04:25:48.079Z,9.18
2023-03-25T04:26:53.336Z,9.17
2023-03-25T04:28:00.104Z,9.16
2023-03-25T04:29:04.732Z,9.16
2023-03-25T04:30:13.415Z,9.17
2023-03-25T04:31:17.941Z,9.17
2023-03-25T04:32:22.449Z,9.17
2023-03-25T04:33:32.351Z,9.16
2023-03-25T04:34:58.109Z,9.14
2023-03-25T04:36:03.872Z,9.11
2023-03-25T04:37:26.386Z,9.11
2023-03-25T04:38:29.883Z,9.08
2023-03-25T04:39:33.793Z,9.06
2023-03-25T04:40:46.892Z,9.04
2023-03-25T04:42:17.962Z,8.97
2023-03-25T04:43:21.243Z,8.95
2023-03-25T04:44:27.292Z,8.92
2023-03-25T04:45:30.939Z,8.90
2023-03-25T04:46:36.557Z,8.89
2023-03-25T04:47:45.245Z,8.88
2023-03-25T04:48:56.333Z,8.87
2023-03-25T04:49:59.052Z,8.88
2023-03-25T04:51:03.531Z,8.87
2023-03-25T04:52:06.614Z,8.88
2023-03-25T04:53:16.441Z,8.88
2023-03-25T04:54:19.673Z,8.88
2023-03-25T04:55:24.040Z,8.88
2023-03-25T04:56:52.143Z,8.89
2023-03-25T04:58:21.303Z,8.86
2023-03-25T04:59:27.229Z,8.86
2023-03-25T05:00:32.085Z,8.88
2023-03-25T05:01:38.041Z,8.88
2023-03-25T05:02:57.118Z,8.89
2023-03-25T05:04:08.780Z,8.91
2023-03-25T05:05:24.641Z,8.94
2023-03-25T05:08:26.399Z,8.89
2023-03-25T05:09:30.312Z,8.86
2023-03-25T05:10:39.065Z,8.87
2023-03-25T05:11:42.438Z,8.88
2023-03-25T05:12:47.120Z,8.89
2023-03-25T05:13:49.746Z,8.91
2023-03-25T05:14:57.283Z,8.92
2023-03-25T05:16:02.495Z,8.93
2023-03-25T05:17:06.897Z,8.95
2023-03-25T05:18:10.618Z,8.95
2023-03-25T05:19:17.845Z,8.96
2023-03-25T05:20:23.035Z,8.96
2023-03-25T05:21:27.419Z,8.96
2023-03-25T05:22:39.958Z,8.97
2023-03-25T05:23:45.353Z,8.97
2023-03-25T05:24:53.860Z,8.98
2023-03-25T05:25:59.303Z,8.99
2023-03-25T05:27:02.640Z,8.99
2023-03-25T05:28:16.865Z,9.00
2023-03-25T05:29:22.849Z,9.00
2023-03-25T05:30:35.090Z,9.01
2023-03-25T05:31:42.167Z,9.02
2023-03-25T05:32:51.201Z,9.04
2023-03-25T05:34:00.475Z,9.06
2023-03-25T05:35:12.305Z,9.10
2023-03-25T05:36:18.173Z,9.12
2023-03-25T05:37:41.108Z,9.16
2023-03-25T05:38:54.787Z,9.16
2023-03-25T05:39:59.665Z,9.20
2023-03-25T05:41:03.624Z,9.23
2023-03-25T05:42:07.998Z,9.26
2023-03-25T05:43:11.230Z,9.28
2023-03-25T05:44:41.799Z,9.30
2023-03-25T05:45:47.420Z,9.33
2023-03-25T05:47:03.017Z,9.31
2023-03-25T05:48:09.198Z,9.32
2023-03-25T05:49:13.184Z,9.34
2023-03-25T05:50:17.228Z,9.36
2023-03-25T05:51:25.917Z,9.37
2023-03-25T05:52:28.945Z,9.39
2023-03-25T05:53:33.177Z,9.40
2023-03-25T05:54:42.339Z,9.42
2023-03-25T05:55:52.661Z,9.41
2023-03-25T05:56:55.673Z,9.45
2023-03-25T05:57:59.692Z,9.47
2023-03-25T05:59:03.935Z,9.51
2023-03-25T06:00:15.700Z,9.56
2023-03-25T06:01:32.541Z,9.62
2023-03-25T06:02:39.063Z,9.68
2023-03-25T06:03:45.809Z,9.72
2023-03-25T06:04:51.185Z,9.75
2023-03-25T06:05:58.657Z,9.78
2023-03-25T06:07:01.868Z,9.83
2023-03-25T06:08:06.737Z,9.85
2023-03-25T06:09:13.251Z,9.88
2023-03-25T06:10:18.441Z,9.91
2023-03-25T06:11:20.944Z,9.92
2023-03-25T06:12:28.404Z,9.97
2023-03-25T06:16:11.918Z,9.98
2023-03-25T06:17:19.141Z,9.99
2023-03-25T06:18:24.968Z,9.98
2023-03-25T06:19:28.424Z,9.94
2023-03-25T06:20:30.962Z,9.93
2023-03-25T06:21:35.687Z,9.92
2023-03-25T06:24:22.281Z,9.88
2023-03-25T06:28:37.191Z,9.84
2023-03-25T06:29:41.986Z,9.87
2023-03-25T06:31:07.344Z,9.93
2023-03-25T06:32:12.808Z,10.01
2023-03-25T06:33:42.902Z,10.07
2023-03-25T06:34:55.621Z,10.15
2023-03-25T06:35:58.686Z,10.21
2023-03-25T06:37:05.698Z,10.28
2023-03-25T06:38:14.045Z,10.34
2023-03-25T06:39:41.849Z,10.40
2023-03-25T06:41:04.231Z,10.49
2023-03-25T06:42:09.050Z,10.57
2023-03-25T06:43:28.091Z,10.63
2023-03-25T06:45:05.327Z,10.70
2023-03-25T06:46:23.341Z,10.73
2023-03-25T06:47:47.996Z,10.79
2023-03-25T06:48:57.723Z,10.85
2023-03-25T06:50:11.939Z,10.92
2023-03-25T06:51:17.840Z,11.01
2023-03-25T06:52:28.241Z,11.09
2023-03-25T06:53:32.010Z,11.16
2023-03-25T06:54:36.241Z,11.22
2023-03-25T06:55:59.472Z,11.31
2023-03-25T06:57:03.129Z,11.37
2023-03-25T06:58:06.313Z,11.42
2023-03-25T06:59:09.599Z,11.46
2023-03-25T07:00:14.246Z,11.45
2023-03-25T07:01:20.593Z,11.44
2023-03-25T07:02:23.415Z,11.45
2023-03-25T07:03:27.155Z,11.43
2023-03-25T07:04:31.008Z,11.42
2023-03-25T07:05:34.635Z,11.42
2023-03-25T07:06:38.003Z,11.42
2023-03-25T07:07:44.437Z,11.42
2023-03-25T07:08:49.189Z,11.43
2023-03-25T07:09:52.745Z,11.45
2023-03-25T07:11:05.310Z,11.48
2023-03-25T07:12:09.179Z,11.49
2023-03-25T07:13:13.380Z,11.55
2023-03-25T07:14:16.811Z,11.60
2023-03-25T07:15:29.724Z,11.66
2023-03-25T07:16:39.840Z,11.71
2023-03-25T07:17:49.398Z,11.79
2023-03-25T07:18:55.109Z,11.86
2023-03-25T07:19:59.478Z,11.93
2023-03-25T07:21:03.333Z,12.00
2023-03-25T07:22:08.440Z,12.03
2023-03-25T07:23:12.679Z,12.09
2023-03-25T07:25:09.239Z,12.22
2023-03-25T07:26:16.681Z,12.27
2023-03-25T07:27:19.599Z,12.33
2023-03-25T07:28:38.205Z,12.39
2023-03-25T07:29:40.956Z,12.41
2023-03-25T07:30:44.790Z,12.46
2023-03-25T07:31:51.408Z,12.48
2023-03-25T07:32:54.588Z,12.54
2023-03-25T07:33:59.988Z,12.58
2023-03-25T07:35:10.544Z,12.65
2023-03-25T07:36:15.099Z,12.65
2023-03-25T07:37:20.131Z,12.65
2023-03-25T07:38:24.270Z,12.68
2023-03-25T07:39:27.316Z,12.77
2023-03-25T07:40:30.795Z,12.88
2023-03-25T07:41:33.780Z,13.04
2023-03-25T07:43:00.434Z,13.27
2023-03-25T07:44:21.925Z,13.53
2023-03-25T07:45:27.448Z,13.75
2023-03-25T07:46:34.313Z,13.95
2023-03-25T07:47:38.501Z,14.19
2023-03-25T07:48:41.860Z,14.36
2023-03-25T07:49:50.136Z,14.57
2023-03-25T07:50:53.910Z,14.81
2023-03-25T07:51:57.206Z,14.99
2023-03-25T07:52:59.426Z,15.15
2023-03-25T07:54:07.936Z,15.33
2023-03-25T07:55:10.807Z,15.56
2023-03-25T07:56:14.648Z,15.67
2023-03-25T07:57:18.206Z,15.80
2023-03-25T07:58:21.147Z,15.91
2023-03-25T07:59:24.405Z,15.98
2023-03-25T08:00:53.130Z,16.12
2023-03-25T08:01:56.766Z,16.25
2023-03-25T08:03:07.030Z,16.30
2023-03-25T08:04:10.279Z,16.16
2023-03-25T08:05:13.120Z,16.05
2023-03-25T08:06:39.836Z,15.79
2023-03-25T08:07:46.859Z,15.57
2023-03-25T08:08:52.934Z,15.40
2023-03-25T08:09:55.593Z,15.28
2023-03-25T08:11:08.963Z,15.19
2023-03-25T08:12:11.188Z,15.06
2023-03-25T08:13:17.788Z,14.97
2023-03-25T08:14:21.762Z,14.96
2023-03-25T08:15:28.487Z,15.04
2023-03-25T08:16:31.439Z,15.20
2023-03-25T08:17:35.104Z,15.37
2023-03-25T08:18:40.662Z,15.59
2023-03-25T08:19:45.497Z,15.75
2023-03-25T08:20:50.807Z,15.84
2023-03-25T08:21:56.233Z,15.85
2023-03-25T08:22:59.157Z,15.79
2023-03-25T08:24:04.741Z,15.70
2023-03-25T08:25:08.420Z,15.56
2023-03-25T08:26:14.202Z,15.47
2023-03-25T08:27:20.021Z,15.40
2023-03-25T08:28:23.800Z,15.44
2023-03-25T08:29:34.779Z,15.58
2023-03-25T08:30:39.310Z,15.76
2023-03-25T08:31:42.017Z,15.97
2023-03-25T08:32:54.994Z,16.18
2023-03-25T08:33:58.284Z,16.37
2023-03-25T08:35:00.371Z,16.57
2023-03-25T08:36:03.637Z,16.74
2023-03-25T08:37:08.681Z,16.83
2023-03-25T08:38:12.583Z,16.73
2023-03-25T08:39:17.416Z,16.52
2023-03-25T08:40:33.190Z,16.30
2023-03-25T08:41:41.748Z,16.00
2023-03-25T08:42:46.256Z,15.87
2023-03-25T08:43:54.468Z,15.85
2023-03-25T08:44:58.011Z,15.90
2023-03-25T08:46:01.105Z,15.98
2023-03-25T08:47:05.026Z,15.96
2023-03-25T08:48:10.507Z,15.97
2023-03-25T08:49:13.492Z,16.02
2023-03-25T08:50:16.608Z,16.06
2023-03-25T08:51:23.215Z,15.97
2023-03-25T08:52:27.112Z,15.85
2023-03-25T08:53:30.122Z,15.77
2023-03-25T08:54:32.099Z,15.71
2023-03-25T08:55:35.678Z,15.67
2023-03-25T08:56:38.575Z,15.64
2023-03-25T08:57:52.113Z,15.61
2023-03-25T08:58:55.314Z,15.58
2023-03-25T08:59:59.486Z,15.60
2023-03-25T09:01:02.640Z,15.63
2023-03-25T09:02:07.367Z,15.64
2023-03-25T09:03:13.352Z,15.67
2023-03-25T09:04:16.729Z,15.77
2023-03-25T09:05:21.133Z,15.82
2023-03-25T09:06:30.510Z,15.88
2023-03-25T09:07:52.568Z,15.86
2023-03-25T09:08:56.252Z,15.85
2023-03-25T09:09:59.221Z,15.80
2023-03-25T09:11:03.845Z,15.79
2023-03-25T09:12:07.995Z,15.78
2023-03-25T09:13:14.434Z,15.90
2023-03-25T09:14:17.961Z,16.02
2023-03-25T09:15:33.680Z,16.04
2023-03-25T09:16:36.318Z,15.97
2023-03-25T09:17:43.118Z,15.92
2023-03-25T09:18:46.120Z,15.87
2023-03-25T09:19:57.039Z,15.89
2023-03-25T09:21:03.076Z,15.93
2023-03-25T09:22:31.917Z,15.97
2023-03-25T09:23:40.075Z,15.97
2023-03-25T09:24:42.552Z,15.99
2023-03-25T09:25:46.760Z,16.03
2023-03-25T09:27:01.371Z,16.04
2023-03-25T09:28:10.101Z,16.05
2023-03-25T09:29:13.822Z,16.08
2023-03-25T09:30:16.660Z,16.16
2023-03-25T09:31:26.417Z,16.24
2023-03-25T09:32:28.744Z,16.32
2023-03-25T09:33:32.913Z,16.39
2023-03-25T09:34:35.901Z,16.48
2023-03-25T09:35:42.449Z,16.55
2023-03-25T09:36:46.098Z,16.69
2023-03-25T09:37:52.042Z,16.92
2023-03-25T09:38:57.121Z,17.13
2023-03-25T09:39:59.936Z,17.26
2023-03-25T09:41:05.867Z,17.30
2023-03-25T09:42:16.939Z,17.16
2023-03-25T09:43:40.451Z,17.01
2023-03-25T09:44:52.897Z,16.92
2023-03-25T09:45:57.041Z,16.77
2023-03-25T09:47:01.067Z,16.73
2023-03-25T09:48:07.533Z,16.77
2023-03-25T09:49:16.823Z,16.59
2023-03-25T09:50:20.599Z,16.40
2023-03-25T09:51:26.950Z,16.19
2023-03-25T09:52:34.941Z,16.04
2023-03-25T09:53:45.931Z,16.08
2023-03-25T09:54:53.369Z,16.12
2023-03-25T09:56:01.472Z,16.23
2023-03-25T09:57:08.495Z,16.29
2023-03-25T09:58:29.928Z,16.33
2023-03-25T09:59:39.401Z,16.28
2023-03-25T10:00:42.172Z,16.21
2023-03-25T10:01:49.254Z,16.13
2023-03-25T10:02:57.410Z,16.19
2023-03-25T10:04:29.111Z,16.35
2023-03-25T10:05:52.910Z,16.57
2023-03-25T10:07:20.116Z,16.77
2023-03-25T10:08:33.943Z,17.03
2023-03-25T10:09:59.289Z,17.26
2023-03-25T10:11:07.610Z,17.40
2023-03-25T10:12:27.041Z,17.38
2023-03-25T10:13:57.954Z,17.40
2023-03-25T10:15:14.468Z,17.48
2023-03-25T10:16:23.096Z,17.33
2023-03-25T10:17:32.071Z,17.15
2023-03-25T10:18:46.616Z,16.93
2023-03-25T10:19:59.496Z,16.68
2023-03-25T10:21:04.406Z,16.49
2023-03-25T10:22:10.755Z,16.36
2023-03-25T10:23:20.519Z,16.22
2023-03-25T10:24:30.050Z,16.01
2023-03-25T10:25:38.349Z,15.79
2023-03-25T10:26:44.381Z,15.60
2023-03-25T10:27:48.836Z,15.42
2023-03-25T10:28:55.491Z,15.25
2023-03-25T10:30:01.293Z,15.10
2023-03-25T10:31:06.887Z,14.94
2023-03-25T10:32:17.158Z,14.75
2023-03-25T10:33:28.042Z,14.57
2023-03-25T10:34:36.459Z,14.38
2023-03-25T10:36:07.066Z,14.19
2023-03-25T10:37:13.077Z,13.94
2023-03-25T10:38:18.807Z,13.74
2023-03-25T10:39:23.581Z,13.55
2023-03-25T10:40:31.120Z,13.32
2023-03-25T10:41:37.429Z,13.05
2023-03-25T10:42:45.300Z,12.84
2023-03-25T10:43:57.125Z,12.66
2023-03-25T10:45:01.278Z,12.57
2023-03-25T10:46:14.416Z,12.56
2023-03-25T10:47:19.197Z,12.55
2023-03-25T10:48:25.303Z,12.52
2023-03-25T10:49:29.914Z,12.48
2023-03-25T10:50:33.133Z,12.43
2023-03-25T10:51:36.245Z,12.37
2023-03-25T10:52:39.006Z,12.26
2023-03-25T10:53:41.916Z,12.12
2023-03-25T10:54:46.689Z,11.89
2023-03-25T10:55:53.614Z,11.63
2023-03-25T10:56:59.939Z,11.37
2023-03-25T10:58:02.954Z,11.12
2023-03-25T10:59:12.373Z,10.89
2023-03-25T11:00:16.853Z,10.67
2023-03-25T11:01:21.464Z,10.46
2023-03-25T11:02:25.642Z,10.27
2023-03-25T11:03:32.125Z,10.07
2023-03-25T11:04:37.872Z,9.90
2023-03-25T11:05:41.304Z,9.80
2023-03-25T11:06:46.068Z,9.69
2023-03-25T11:07:51.719Z,9.60
2023-03-25T11:09:12.233Z,9.58
2023-03-25T11:10:21.324Z,9.78
2023-03-25T11:11:32.152Z,10.09
2023-03-25T11:12:42.963Z,10.43
2023-03-25T11:13:46.390Z,10.77
2023-03-25T11:14:57.943Z,11.14
2023-03-25T11:16:02.544Z,11.48
2023-03-25T11:17:09.606Z,11.81
2023-03-25T11:18:14.894Z,12.12
2023-03-25T11:19:22.630Z,12.43
2023-03-25T11:20:28.881Z,12.77
2023-03-25T11:21:34.057Z,13.07
2023-03-25T11:22:37.643Z,13.31
2023-03-25T11:23:45.084Z,13.58
2023-03-25T11:24:49.714Z,13.85
2023-03-25T11:25:54.211Z,14.13
2023-03-25T11:26:57.411Z,14.38
2023-03-25T11:28:03.196Z,14.66
2023-03-25T11:29:08.469Z,14.91
2023-03-25T11:30:16.366Z,15.17
2023-03-25T11:31:20.988Z,15.46
2023-03-25T11:32:25.214Z,15.72
2023-03-25T11:33:28.297Z,15.92
2023-03-25T11:34:31.246Z,16.15
2023-03-25T11:35:38.337Z,16.32
2023-03-25T11:36:41.123Z,16.44
2023-03-25T11:37:46.765Z,16.54
2023-03-25T11:38:53.596Z,16.65
2023-03-25T11:39:57.115Z,16.75
2023-03-25T11:40:59.941Z,16.84
2023-03-25T11:42:25.325Z,17.06
2023-03-25T11:43:34.304Z,17.30
2023-03-25T11:44:36.661Z,17.47
2023-03-25T11:45:40.265Z,17.54
2023-03-25T11:46:43.348Z,17.67
2023-03-25T11:47:46.414Z,17.85
2023-03-25T11:48:50.103Z,18.05
2023-03-25T11:49:54.162Z,18.18
2023-03-25T11:50:58.125Z,18.24
2023-03-25T11:52:02.370Z,18.27
2023-03-25T11:53:11.228Z,18.36
2023-03-25T11:54:18.117Z,18.38
2023-03-25T11:55:24.046Z,18.43
2023-03-25T11:56:30.420Z,18.51
2023-03-25T11:57:37.609Z,18.57
2023-03-25T11:58:42.079Z,18.44
2023-03-25T11:59:45.555Z,18.16
2023-03-25T12:00:49.998Z,17.83
2023-03-25T12:02:03.231Z,17.44
2023-03-25T12:03:08.173Z,17.07
2023-03-25T12:04:16.190Z,16.75
2023-03-25T12:05:20.232Z,16.49
2023-03-25T12:06:22.710Z,16.28
2023-03-25T12:07:26.340Z,16.09
2023-03-25T12:08:42.760Z,15.72
2023-03-25T12:09:55.609Z,15.17
2023-03-25T12:11:09.117Z,14.53
2023-03-25T12:12:26.986Z,13.94
2023-03-25T12:13:40.954Z,13.39
2023-03-25T12:15:07.129Z,12.70
2023-03-25T12:16:21.645Z,12.15
2023-03-25T12:17:32.774Z,11.82
2023-03-25T12:18:48.280Z,11.48
2023-03-25T12:19:57.522Z,11.21
2023-03-25T12:21:07.585Z,11.02
2023-03-25T12:22:19.412Z,10.87
2023-03-25T12:23:29.857Z,10.82
2023-03-25T12:24:42.093Z,10.79
2023-03-25T12:25:54.668Z,10.81
2023-03-25T12:27:14.307Z,10.81
2023-03-25T12:28:32.371Z,10.78
2023-03-25T12:29:41.838Z,10.73
2023-03-25T12:30:54.435Z,10.70
2023-03-25T12:32:09.047Z,10.66
2023-03-25T12:33:23.095Z,10.61
2023-03-25T12:34:32.948Z,10.56
2023-03-25T12:35:40.579Z,10.49
2023-03-25T12:36:49.541Z,10.41
2023-03-25T12:38:18.123Z,10.34
2023-03-25T12:39:45.936Z,10.19
2023-03-25T12:41:12.368Z,10.14
2023-03-25T12:42:26.020Z,10.07
2023-03-25T12:43:33.498Z,10.00
2023-03-25T12:44:52.841Z,9.97
2023-03-25T12:46:09.417Z,9.94
2023-03-25T12:47:17.053Z,9.93
2023-03-25T12:48:29.577Z,9.94
2023-03-25T12:49:43.434Z,9.89
2023-03-25T12:50:52.688Z,9.78
2023-03-25T12:51:59.803Z,9.69
2023-03-25T12:53:13.484Z,9.63
2023-03-25T12:54:29.922Z,9.54
2023-03-25T12:55:45.529Z,9.50
2023-03-25T12:56:53.931Z,9.43
2023-03-25T12:58:09.801Z,9.40
2023-03-25T12:59:38.423Z,9.37
2023-03-25T13:00:48.144Z,9.26
2023-03-25T13:02:02.320Z,9.15
2023-03-25T13:03:36.027Z,9.04
2023-03-25T13:04:49.241Z,8.92
2023-03-25T13:06:36.264Z,8.88
2023-03-25T13:07:44.664Z,8.86
2023-03-25T13:08:52.241Z,8.84
2023-03-25T13:09:59.438Z,8.82
2023-03-25T13:11:06.571Z,8.81
2023-03-25T13:12:13.242Z,8.86
2023-03-25T13:13:19.772Z,9.01
2023-03-25T13:14:27.270Z,9.19
2023-03-25T13:15:33.204Z,9.39
2023-03-25T13:16:42.031Z,9.57
2023-03-25T13:17:48.708Z,9.75
2023-03-25T13:18:56.804Z,9.84
2023-03-25T13:20:01.209Z,9.89
2023-03-25T13:21:13.374Z,9.96
2023-03-25T13:22:20.263Z,10.18
2023-03-25T13:23:23.754Z,10.47
2023-03-25T13:24:31.897Z,10.74
2023-03-25T13:25:37.479Z,11.03
2023-03-25T13:26:44.564Z,11.31
2023-03-25T13:27:48.287Z,11.49
2023-03-25T13:28:56.075Z,11.53
2023-03-25T13:30:24.383Z,11.73
2023-03-25T13:31:28.978Z,12.07
2023-03-25T13:32:34.754Z,12.47
2023-03-25T13:33:44.314Z,12.84
2023-03-25T13:34:50.197Z,13.04
2023-03-25T13:36:22.137Z,13.10
2023-03-25T13:37:29.264Z,12.94
2023-03-25T13:38:58.062Z,12.68
2023-03-25T13:40:17.993Z,12.42
2023-03-25T13:41:25.963Z,12.31
2023-03-25T13:42:35.093Z,12.24
2023-03-25T13:43:44.916Z,12.19
2023-03-25T13:44:47.848Z,12.17
2023-03-25T13:46:12.114Z,12.27
2023-03-25T13:47:19.597Z,12.36
2023-03-25T13:48:32.044Z,12.45
2023-03-25T13:49:48.456Z,12.61
2023-03-25T13:50:53.832Z,12.77
2023-03-25T13:51:57.396Z,12.95
2023-03-25T13:53:04.963Z,13.10
2023-03-25T13:54:14.038Z,13.22
2023-03-25T13:55:18.292Z,13.34
2023-03-25T13:57:00.496Z,13.53
2023-03-25T13:58:31.049Z,13.70
2023-03-25T14:00:24.918Z,13.83
2023-03-25T14:01:39.804Z,13.72
2023-03-25T14:03:04.051Z,13.66
2023-03-25T14:04:26.058Z,13.53
2023-03-25T14:05:48.374Z,13.37
2023-03-25T14:07:29.498Z,13.23
2023-03-25T14:08:58.839Z,13.05
2023-03-25T14:10:29.374Z,12.84
2023-03-25T14:11:35.241Z,12.69
2023-03-25T14:12:39.012Z,12.58
2023-03-25T14:13:45.572Z,12.51
2023-03-25T14:14:52.096Z,12.45
2023-03-25T14:15:59.112Z,12.35
2023-03-25T14:17:02.177Z,12.27
2023-03-25T14:18:04.806Z,12.18
2023-03-25T14:19:11.559Z,12.10
2023-03-25T14:20:19.435Z,11.99
2023-03-25T14:21:33.025Z,11.85
2023-03-25T14:22:41.369Z,11.69
2023-03-25T14:23:45.214Z,11.51
2023-03-25T14:24:48.644Z,11.36
2023-03-25T14:25:53.633Z,11.22
2023-03-25T14:27:01.891Z,11.06
2023-03-25T14:28:05.826Z,10.92
2023-03-25T14:29:09.871Z,10.76
2023-03-25T14:30:20.347Z,10.57
2023-03-25T14:31:30.528Z,10.47
2023-03-25T14:32:36.464Z,10.42
2023-03-25T14:34:25.348Z,10.44
2023-03-25T14:56:26.776Z,9.98
2023-03-25T14:57:35.009Z,9.88
2023-03-25T14:58:39.819Z,9.81
2023-03-25T14:59:45.678Z,9.78
2023-03-25T15:00:52.105Z,9.78
2023-03-25T15:01:55.561Z,9.75
2023-03-25T15:03:03.018Z,9.77
2023-03-25T15:04:13.164Z,9.79
2023-03-25T15:05:19.392Z,9.79
2023-03-25T15:06:29.555Z,9.77
2023-03-25T15:07:44.231Z,9.73
2023-03-25T15:08:53.180Z,9.76
2023-03-25T15:09:56.890Z,9.80
2023-03-25T15:11:05.796Z,9.84
2023-03-25T15:12:15.563Z,9.90
2023-03-25T15:13:22.019Z,9.97
2023-03-25T15:14:28.174Z,10.05
2023-03-25T15:15:33.195Z,10.13
2023-03-25T15:16:38.371Z,10.20
2023-03-25T15:17:44.374Z,10.32
2023-03-25T15:19:02.400Z,10.49
2023-03-25T15:20:36.794Z,10.65
2023-03-25T15:22:10.958Z,10.77
2023-03-25T15:23:32.731Z,10.85
2023-03-25T15:24:37.141Z,10.87
2023-03-25T15:25:40.334Z,10.89
2023-03-25T15:26:43.530Z,10.91
2023-03-25T15:28:00.191Z,10.93
2023-03-25T15:29:14.244Z,10.95
2023-03-25T15:30:34.145Z,10.95
2023-03-25T15:31:44.695Z,10.98
2023-03-25T15:32:55.056Z,11.01
2023-03-25T15:34:11.524Z,11.03
2023-03-25T15:35:32.142Z,11.05
2023-03-25T15:36:50.494Z,11.06
2023-03-25T15:38:32.438Z,11.10
2023-03-25T15:39:55.706Z,11.13
2023-03-25T15:41:11.961Z,11.16
2023-03-25T15:42:39.741Z,11.20